Jay Michael — WDD2051 — position and weather

sailwx.info

Track history (hours):
 
Tides and Currents Weather Stations Pressure Air Temp Water Temp Dewpoint Dewpoint Depression Visibility Wind Speed Wind Dir Waves Ship Positions

Jay Michael

Owner: Sterling Equipment Inc., Quincy, MA. More information available from US FCC via Universal Licensing System and Coast Guard Vessel Documentation Center.

Last reported at 2015-Apr-19 17:33 UTC. Time now 2015-Apr-19 17:40 UTC.
Position N 40°46' W 073°60'.

Length 21 m.

Type: Tug. MMSI: 367110280.

Date/timePositionNaut miles runAvg speedWind from/ knotsBaromVisibWave heightAir tempDewpointWater temp
2015-Apr-19 17:33N 40°46' W 073°60'0 0.0
2015-Apr-19 16:33N 40°46' W 073°60'0 0.0
2015-Apr-19 15:33N 40°46' W 073°60'0 0.0
2015-Apr-19 14:33N 40°46' W 073°60'6 6.0
2015-Apr-19 13:33N 40°41' W 074°03'6 6.0
2015-Apr-19 12:33N 40°39' W 074°11'1 0.9
2015-Apr-19 11:33N 40°38' W 074°12'0 0.2
2015-Apr-19 10:33N 40°38' W 074°12'8 7.9
2015-Apr-19 09:33N 40°42' W 074°02'5 4.8
2015-Apr-19 08:33N 40°46' W 073°60'0 0.0
2015-Apr-19 07:33N 40°46' W 073°60'0 0.0
2015-Apr-19 06:33N 40°46' W 073°60'0 0.0
2015-Apr-19 05:33N 40°46' W 073°60'0 0.0
2015-Apr-19 04:33N 40°46' W 073°60'0 0.0
2015-Apr-19 03:33N 40°46' W 073°60'0 0.0
2015-Apr-19 02:33N 40°46' W 073°60'0 0.0
2015-Apr-19 01:33N 40°46' W 073°60'0 0.0
2015-Apr-19 00:33N 40°46' W 073°60'0 0.0
2015-Apr-18 23:33N 40°46' W 073°60'1 0.6
2015-Apr-18 22:33N 40°46' W 074°01'0 0.1
2015-Apr-18 21:33N 40°46' W 074°01'1 0.5
2015-Apr-18 20:33N 40°46' W 073°60'1 0.5
2015-Apr-18 19:33N 40°46' W 074°01'1 0.5
2015-Apr-18 18:33N 40°46' W 073°60'0 0.0
2015-Apr-18 17:33N 40°46' W 073°60'0 0.0
2015-Apr-18 16:33N 40°46' W 073°60'0 0.0
2015-Apr-18 15:33N 40°46' W 073°60'0 0.0
2015-Apr-18 14:33N 40°46' W 073°60'0 0.3
2015-Apr-18 13:33N 40°46' W 074°00'0 0.3
2015-Apr-18 12:33N 40°46' W 073°60'0 0.0
2015-Apr-18 11:33N 40°46' W 073°60'0 0.2
2015-Apr-18 10:33N 40°46' W 074°00'1 0.8
2015-Apr-18 09:33N 40°46' W 074°01'1 1.0
2015-Apr-18 08:33N 40°46' W 073°60'0 0.0
2015-Apr-18 07:33N 40°46' W 073°60'0 0.0
2015-Apr-18 06:33N 40°46' W 073°60'0 0.4
2015-Apr-18 05:33N 40°46' W 074°00'0 0.4
2015-Apr-18 04:33N 40°46' W 073°60'0 0.0
2015-Apr-18 03:33N 40°46' W 074°00'0 0.0
2015-Apr-18 02:33N 40°46' W 074°00'0 0.0
2015-Apr-18 01:33N 40°46' W 074°00'0 0.0
2015-Apr-18 00:33N 40°46' W 074°00'0 0.0
2015-Apr-17 23:33N 40°46' W 074°00'0 0.0
2015-Apr-17 22:33N 40°46' W 074°00'0 0.0
2015-Apr-17 21:33N 40°46' W 074°00'0 0.0
2015-Apr-17 20:33N 40°46' W 074°00'0 0.0
2015-Apr-17 19:33N 40°46' W 074°00'0 0.0
2015-Apr-17 18:33N 40°46' W 074°00'0 0.0
2015-Apr-17 17:33N 40°46' W 074°00'0 0.0
2015-Apr-17 16:33N 40°46' W 074°00'0 0.1
2015-Apr-17 15:33N 40°46' W 074°00'0 0.2
2015-Apr-17 14:33N 40°46' W 074°00'0 0.2
2015-Apr-17 13:33N 40°46' W 074°00'0 0.0
2015-Apr-17 12:33N 40°46' W 074°00'0 0.0
2015-Apr-17 11:33N 40°46' W 074°00'0 0.0
2015-Apr-17 10:33N 40°46' W 074°00'1 0.9
2015-Apr-17 09:33N 40°46' W 074°01'1 0.9
2015-Apr-17 08:33N 40°46' W 074°00'1 0.5
2015-Apr-17 07:33N 40°46' W 074°01'0 0.5
2015-Apr-17 06:34N 40°46' W 074°00'0 0.0
2015-Apr-17 05:33N 40°46' W 074°00'0 0.0
2015-Apr-17 03:33N 40°46' W 074°00'0 0.0
2015-Apr-17 02:33N 40°46' W 074°00'0 0.0
2015-Apr-17 01:33N 40°46' W 074°00'0 0.1
2015-Apr-17 00:33N 40°46' W 074°00'0 0.1
2015-Apr-16 23:33N 40°46' W 074°00'0 0.0
2015-Apr-16 22:33N 40°46' W 074°00'0 0.0
2015-Apr-16 21:33N 40°46' W 074°00'0 0.2
2015-Apr-16 20:33N 40°46' W 074°00'0 0.1
2015-Apr-16 19:34N 40°46' W 074°00'0 0.0
2015-Apr-16 18:33N 40°46' W 074°00'0 0.0
2015-Apr-16 17:33N 40°46' W 074°00'0 0.0
2015-Apr-16 16:33N 40°46' W 074°00'0 0.0
2015-Apr-16 15:33N 40°46' W 074°00'0 0.0
2015-Apr-16 14:33N 40°46' W 074°00'0 0.1
2015-Apr-16 13:33N 40°46' W 074°00'0 0.0
2015-Apr-16 12:33N 40°46' W 074°00'0 0.0
2015-Apr-16 11:33N 40°46' W 074°00'0 0.0
2015-Apr-16 10:33N 40°46' W 074°00'1 0.8
2015-Apr-16 09:34N 40°46' W 074°01'1 0.8
2015-Apr-16 08:33N 40°46' W 074°00'0 0.0
2015-Apr-16 07:33N 40°46' W 074°00'0 0.0
2015-Apr-16 06:33N 40°46' W 074°00'0 0.0
2015-Apr-16 05:33N 40°46' W 074°00'0 0.0
2015-Apr-16 04:33N 40°46' W 074°00'0 0.0
2015-Apr-16 03:33N 40°46' W 074°00'0 0.0
2015-Apr-16 02:33N 40°46' W 074°00'0 0.0
2015-Apr-16 01:33N 40°46' W 074°00'0 0.4
2015-Apr-16 00:33N 40°46' W 074°01'0 0.3
2015-Apr-15 23:33N 40°46' W 074°01'1 0.8
2015-Apr-15 22:33N 40°46' W 074°00'0 0.0
2015-Apr-15 21:33N 40°46' W 074°00'0 0.0
2015-Apr-15 20:33N 40°46' W 074°00'0 0.0
2015-Apr-15 19:34N 40°46' W 074°00'0 0.1
2015-Apr-15 18:33N 40°46' W 074°00'0 0.1
2015-Apr-15 17:33N 40°46' W 074°00'0 0.1
2015-Apr-15 16:33N 40°46' W 074°00'1 0.7
2015-Apr-15 15:33N 40°45' W 074°01'2 1.7
2015-Apr-15 14:33N 40°44' W 074°01'2 1.8
2015-Apr-15 13:34N 40°42' W 074°02'3 2.8
2015-Apr-15 12:33N 40°39' W 074°03'5 4.8
2015-Apr-15 11:32N 40°39' W 074°10'2 1.8
2015-Apr-15 10:33N 40°38' W 074°12'0 0.0
2015-Apr-15 09:33N 40°38' W 074°12'0 0.0
2015-Apr-15 08:33N 40°38' W 074°12'0 0.0
2015-Apr-15 07:33N 40°38' W 074°12'0 0.0
2015-Apr-15 06:33N 40°38' W 074°12'0 0.0
2015-Apr-15 05:33N 40°38' W 074°12'4 4.2
2015-Apr-15 04:33N 40°39' W 074°06'9 8.6
2015-Apr-15 03:33N 40°46' W 074°00'2 2.1
2015-Apr-15 02:33N 40°44' W 074°01'2 2.1
2015-Apr-15 01:34N 40°44' W 073°58'7 6.5
2015-Apr-15 00:28N 40°48' W 073°50'6 5.7
2015-Apr-14 23:21N 40°52' W 073°44'2 2.4
2015-Apr-14 22:29N 40°54' W 073°42'4 3.9
2015-Apr-14 21:28N 40°51' W 073°45'5 5.6
2015-Apr-14 20:33N 40°48' W 073°51'1010.1
2015-Apr-14 19:34N 40°41' W 074°01'8 7.6
2015-Apr-14 18:33N 40°39' W 074°10'1 1.2
2015-Apr-14 17:34N 40°38' W 074°12'0 0.0
2015-Apr-14 16:34N 40°38' W 074°12'0 0.0
2015-Apr-14 15:34N 40°38' W 074°12'0 0.1
2015-Apr-14 14:33N 40°38' W 074°12'5 4.5
2015-Apr-14 13:34N 40°39' W 074°06'5 5.1
2015-Apr-14 12:33N 40°42' W 074°00'7 6.8
2015-Apr-14 11:33N 40°47' W 073°55'9 4.4
2015-Apr-14 09:28N 40°52' W 073°44'5 5.3
2015-Apr-14 08:33N 40°55' W 073°39'5 5.3
2015-Apr-14 07:33N 40°58' W 073°34'5 4.9
2015-Apr-14 06:33N 41°00' W 073°28'4 4.4
2015-Apr-14 05:34N 41°02' W 073°22'4 3.8
2015-Apr-14 04:34N 41°03' W 073°18'4 3.9
2015-Apr-14 03:34N 41°04' W 073°13'4 3.7
2015-Apr-14 02:34N 41°05' W 073°08'4 3.6
2015-Apr-14 01:34N 41°06' W 073°04'4 4.1
2015-Apr-14 00:34N 41°07' W 072°58'5 4.7
2015-Apr-13 23:34N 41°08' W 072°52'5 5.3
2015-Apr-13 22:33N 41°09' W 072°45'6 5.9
2015-Apr-13 21:33N 41°11' W 072°38'7 6.6
2015-Apr-13 20:33N 41°12' W 072°29'7 7.1
2015-Apr-13 19:34N 41°14' W 072°20'7 6.5
2015-Apr-13 18:33N 41°15' W 072°11'6 5.5
2015-Apr-13 17:34N 41°14' W 072°04'4 4.2
2015-Apr-13 16:34N 41°15' W 071°58'4 3.9
2015-Apr-13 15:34N 41°15' W 071°53'4 4.4
2015-Apr-13 14:34N 41°17' W 071°48'4 4.5
2015-Apr-13 13:34N 41°17' W 071°42'5 4.6
2015-Apr-13 12:33N 41°18' W 071°36'5 4.8
2015-Apr-13 11:33N 41°20' W 071°30'5 5.1
2015-Apr-13 10:33N 41°21' W 071°23'5 5.0
2015-Apr-13 09:33N 41°23' W 071°17'5 4.9
2015-Apr-13 08:34N 41°25' W 071°11'5 4.8
2015-Apr-13 07:32N 41°26' W 071°05'  
2015-Apr-11 03:08N 42°12' W 070°41'5 8.6
2015-Apr-11 02:33N 42°08' W 070°38'9 8.7
2015-Apr-11 01:28N 41°60' W 070°32'20 6.0
2015-Apr-10 22:09N 41°41' W 070°41'3 4.8
2015-Apr-10 21:29N 41°38' W 070°44'7 4.6
2015-Apr-10 20:05N 41°33' W 070°49'59 3.0
2015-Apr-10 00:33N 41°21' W 072°05'0 0.0
2015-Apr-09 23:34N 41°21' W 072°05'0 0.0
2015-Apr-09 22:33N 41°21' W 072°05'0 0.0
2015-Apr-09 21:33N 41°21' W 072°05'0 0.0
2015-Apr-09 20:34N 41°21' W 072°05'0 0.0
2015-Apr-09 19:34N 41°21' W 072°05'0 0.0
2015-Apr-09 18:33N 41°21' W 072°05'  
Track history (hours):
 
Tides and Currents Weather Stations Pressure Air Temp Water Temp Dewpoint Dewpoint Depression Visibility Wind Speed Wind Dir Waves Ship Positions

Jay Michael

Owner: Sterling Equipment Inc., Quincy, MA. More information available from US FCC via Universal Licensing System and Coast Guard Vessel Documentation Center.

Last reported at 2015-Apr-19 17:33 UTC. Time now 2015-Apr-19 17:40 UTC.
Position N 40°46' W 073°60'.

Length 21 m.

Type: Tug. MMSI: 367110280.

Date/timePositionNaut miles runAvg speedWind from/ knotsBaromVisibWave heightAir tempDewpointWater temp
2015-Apr-19 17:33N 40°46' W 073°60'0 0.0
2015-Apr-19 16:33N 40°46' W 073°60'0 0.0
2015-Apr-19 15:33N 40°46' W 073°60'0 0.0
2015-Apr-19 14:33N 40°46' W 073°60'6 6.0
2015-Apr-19 13:33N 40°41' W 074°03'6 6.0
2015-Apr-19 12:33N 40°39' W 074°11'1 0.9
2015-Apr-19 11:33N 40°38' W 074°12'0 0.2
2015-Apr-19 10:33N 40°38' W 074°12'8 7.9
2015-Apr-19 09:33N 40°42' W 074°02'5 4.8
2015-Apr-19 08:33N 40°46' W 073°60'0 0.0
2015-Apr-19 07:33N 40°46' W 073°60'0 0.0
2015-Apr-19 06:33N 40°46' W 073°60'0 0.0
2015-Apr-19 05:33N 40°46' W 073°60'0 0.0
2015-Apr-19 04:33N 40°46' W 073°60'0 0.0
2015-Apr-19 03:33N 40°46' W 073°60'0 0.0
2015-Apr-19 02:33N 40°46' W 073°60'0 0.0
2015-Apr-19 01:33N 40°46' W 073°60'0 0.0
2015-Apr-19 00:33N 40°46' W 073°60'0 0.0
2015-Apr-18 23:33N 40°46' W 073°60'1 0.6
2015-Apr-18 22:33N 40°46' W 074°01'0 0.1
2015-Apr-18 21:33N 40°46' W 074°01'1 0.5
2015-Apr-18 20:33N 40°46' W 073°60'1 0.5
2015-Apr-18 19:33N 40°46' W 074°01'1 0.5
2015-Apr-18 18:33N 40°46' W 073°60'0 0.0
2015-Apr-18 17:33N 40°46' W 073°60'0 0.0
2015-Apr-18 16:33N 40°46' W 073°60'0 0.0
2015-Apr-18 15:33N 40°46' W 073°60'0 0.0
2015-Apr-18 14:33N 40°46' W 073°60'0 0.3
2015-Apr-18 13:33N 40°46' W 074°00'0 0.3
2015-Apr-18 12:33N 40°46' W 073°60'0 0.0
2015-Apr-18 11:33N 40°46' W 073°60'0 0.2
2015-Apr-18 10:33N 40°46' W 074°00'1 0.8
2015-Apr-18 09:33N 40°46' W 074°01'1 1.0
2015-Apr-18 08:33N 40°46' W 073°60'0 0.0
2015-Apr-18 07:33N 40°46' W 073°60'0 0.0
2015-Apr-18 06:33N 40°46' W 073°60'0 0.4
2015-Apr-18 05:33N 40°46' W 074°00'0 0.4
2015-Apr-18 04:33N 40°46' W 073°60'0 0.0
2015-Apr-18 03:33N 40°46' W 074°00'0 0.0
2015-Apr-18 02:33N 40°46' W 074°00'0 0.0
2015-Apr-18 01:33N 40°46' W 074°00'0 0.0
2015-Apr-18 00:33N 40°46' W 074°00'0 0.0
2015-Apr-17 23:33N 40°46' W 074°00'0 0.0
2015-Apr-17 22:33N 40°46' W 074°00'0 0.0
2015-Apr-17 21:33N 40°46' W 074°00'0 0.0
2015-Apr-17 20:33N 40°46' W 074°00'0 0.0
2015-Apr-17 19:33N 40°46' W 074°00'0 0.0
2015-Apr-17 18:33N 40°46' W 074°00'0 0.0
2015-Apr-17 17:33N 40°46' W 074°00'0 0.0
2015-Apr-17 16:33N 40°46' W 074°00'0 0.1
2015-Apr-17 15:33N 40°46' W 074°00'0 0.2
2015-Apr-17 14:33N 40°46' W 074°00'0 0.2
2015-Apr-17 13:33N 40°46' W 074°00'0 0.0
2015-Apr-17 12:33N 40°46' W 074°00'0 0.0
2015-Apr-17 11:33N 40°46' W 074°00'0 0.0
2015-Apr-17 10:33N 40°46' W 074°00'1 0.9
2015-Apr-17 09:33N 40°46' W 074°01'1 0.9
2015-Apr-17 08:33N 40°46' W 074°00'1 0.5
2015-Apr-17 07:33N 40°46' W 074°01'0 0.5
2015-Apr-17 06:34N 40°46' W 074°00'0 0.0
2015-Apr-17 05:33N 40°46' W 074°00'0 0.0
2015-Apr-17 03:33N 40°46' W 074°00'0 0.0
2015-Apr-17 02:33N 40°46' W 074°00'0 0.0
2015-Apr-17 01:33N 40°46' W 074°00'0 0.1
2015-Apr-17 00:33N 40°46' W 074°00'0 0.1
2015-Apr-16 23:33N 40°46' W 074°00'0 0.0
2015-Apr-16 22:33N 40°46' W 074°00'0 0.0
2015-Apr-16 21:33N 40°46' W 074°00'0 0.2
2015-Apr-16 20:33N 40°46' W 074°00'0 0.1
2015-Apr-16 19:34N 40°46' W 074°00'0 0.0
2015-Apr-16 18:33N 40°46' W 074°00'0 0.0
2015-Apr-16 17:33N 40°46' W 074°00'0 0.0
2015-Apr-16 16:33N 40°46' W 074°00'0 0.0
2015-Apr-16 15:33N 40°46' W 074°00'0 0.0
2015-Apr-16 14:33N 40°46' W 074°00'0 0.1
2015-Apr-16 13:33N 40°46' W 074°00'0 0.0
2015-Apr-16 12:33N 40°46' W 074°00'0 0.0
2015-Apr-16 11:33N 40°46' W 074°00'0 0.0
2015-Apr-16 10:33N 40°46' W 074°00'1 0.8
2015-Apr-16 09:34N 40°46' W 074°01'1 0.8
2015-Apr-16 08:33N 40°46' W 074°00'0 0.0
2015-Apr-16 07:33N 40°46' W 074°00'0 0.0
2015-Apr-16 06:33N 40°46' W 074°00'0 0.0
2015-Apr-16 05:33N 40°46' W 074°00'0 0.0
2015-Apr-16 04:33N 40°46' W 074°00'0 0.0
2015-Apr-16 03:33N 40°46' W 074°00'0 0.0
2015-Apr-16 02:33N 40°46' W 074°00'0 0.0
2015-Apr-16 01:33N 40°46' W 074°00'0 0.4
2015-Apr-16 00:33N 40°46' W 074°01'0 0.3
2015-Apr-15 23:33N 40°46' W 074°01'1 0.8
2015-Apr-15 22:33N 40°46' W 074°00'0 0.0
2015-Apr-15 21:33N 40°46' W 074°00'0 0.0
2015-Apr-15 20:33N 40°46' W 074°00'0 0.0
2015-Apr-15 19:34N 40°46' W 074°00'0 0.1
2015-Apr-15 18:33N 40°46' W 074°00'0 0.1
2015-Apr-15 17:33N 40°46' W 074°00'0 0.1
2015-Apr-15 16:33N 40°46' W 074°00'1 0.7
2015-Apr-15 15:33N 40°45' W 074°01'2 1.7
2015-Apr-15 14:33N 40°44' W 074°01'2 1.8
2015-Apr-15 13:34N 40°42' W 074°02'3 2.8
2015-Apr-15 12:33N 40°39' W 074°03'5 4.8
2015-Apr-15 11:32N 40°39' W 074°10'2 1.8
2015-Apr-15 10:33N 40°38' W 074°12'0 0.0
2015-Apr-15 09:33N 40°38' W 074°12'0 0.0
2015-Apr-15 08:33N 40°38' W 074°12'0 0.0
2015-Apr-15 07:33N 40°38' W 074°12'0 0.0
2015-Apr-15 06:33N 40°38' W 074°12'0 0.0
2015-Apr-15 05:33N 40°38' W 074°12'4 4.2
2015-Apr-15 04:33N 40°39' W 074°06'9 8.6
2015-Apr-15 03:33N 40°46' W 074°00'2 2.1
2015-Apr-15 02:33N 40°44' W 074°01'2 2.1
2015-Apr-15 01:34N 40°44' W 073°58'7 6.5
2015-Apr-15 00:28N 40°48' W 073°50'6 5.7
2015-Apr-14 23:21N 40°52' W 073°44'2 2.4
2015-Apr-14 22:29N 40°54' W 073°42'4 3.9
2015-Apr-14 21:28N 40°51' W 073°45'5 5.6
2015-Apr-14 20:33N 40°48' W 073°51'1010.1
2015-Apr-14 19:34N 40°41' W 074°01'8 7.6
2015-Apr-14 18:33N 40°39' W 074°10'1 1.2
2015-Apr-14 17:34N 40°38' W 074°12'0 0.0
2015-Apr-14 16:34N 40°38' W 074°12'0 0.0
2015-Apr-14 15:34N 40°38' W 074°12'0 0.1
2015-Apr-14 14:33N 40°38' W 074°12'5 4.5
2015-Apr-14 13:34N 40°39' W 074°06'5 5.1
2015-Apr-14 12:33N 40°42' W 074°00'7 6.8
2015-Apr-14 11:33N 40°47' W 073°55'9 4.4
2015-Apr-14 09:28N 40°52' W 073°44'5 5.3
2015-Apr-14 08:33N 40°55' W 073°39'5 5.3
2015-Apr-14 07:33N 40°58' W 073°34'5 4.9
2015-Apr-14 06:33N 41°00' W 073°28'4 4.4
2015-Apr-14 05:34N 41°02' W 073°22'4 3.8
2015-Apr-14 04:34N 41°03' W 073°18'4 3.9
2015-Apr-14 03:34N 41°04' W 073°13'4 3.7
2015-Apr-14 02:34N 41°05' W 073°08'4 3.6
2015-Apr-14 01:34N 41°06' W 073°04'4 4.1
2015-Apr-14 00:34N 41°07' W 072°58'5 4.7
2015-Apr-13 23:34N 41°08' W 072°52'5 5.3
2015-Apr-13 22:33N 41°09' W 072°45'6 5.9
2015-Apr-13 21:33N 41°11' W 072°38'7 6.6
2015-Apr-13 20:33N 41°12' W 072°29'7 7.1
2015-Apr-13 19:34N 41°14' W 072°20'7 6.5
2015-Apr-13 18:33N 41°15' W 072°11'6 5.5
2015-Apr-13 17:34N 41°14' W 072°04'4 4.2
2015-Apr-13 16:34N 41°15' W 071°58'4 3.9
2015-Apr-13 15:34N 41°15' W 071°53'4 4.4
2015-Apr-13 14:34N 41°17' W 071°48'4 4.5
2015-Apr-13 13:34N 41°17' W 071°42'5 4.6
2015-Apr-13 12:33N 41°18' W 071°36'5 4.8
2015-Apr-13 11:33N 41°20' W 071°30'5 5.1
2015-Apr-13 10:33N 41°21' W 071°23'5 5.0
2015-Apr-13 09:33N 41°23' W 071°17'5 4.9
2015-Apr-13 08:34N 41°25' W 071°11'5 4.8
2015-Apr-13 07:32N 41°26' W 071°05'  
2015-Apr-11 03:08N 42°12' W 070°41'5 8.6
2015-Apr-11 02:33N 42°08' W 070°38'9 8.7
2015-Apr-11 01:28N 41°60' W 070°32'20 6.0
2015-Apr-10 22:09N 41°41' W 070°41'3 4.8
2015-Apr-10 21:29N 41°38' W 070°44'7 4.6
2015-Apr-10 20:05N 41°33' W 070°49'59 3.0
2015-Apr-10 00:33N 41°21' W 072°05'0 0.0
2015-Apr-09 23:34N 41°21' W 072°05'0 0.0
2015-Apr-09 22:33N 41°21' W 072°05'0 0.0
2015-Apr-09 21:33N 41°21' W 072°05'0 0.0
2015-Apr-09 20:34N 41°21' W 072°05'0 0.0
2015-Apr-09 19:34N 41°21' W 072°05'0 0.0
2015-Apr-09 18:33N 41°21' W 072°05'  

Dump ship's entire track history